createdAt,value
2023-06-23T04:12:21.430Z,15.02
2023-06-23T04:18:28.864Z,13.23
2023-06-23T04:21:34.141Z,13.70
2023-06-23T04:24:40.126Z,11.95
2023-06-23T04:27:45.017Z,12.65
2023-06-23T04:30:48.199Z,12.23
2023-06-23T04:33:50.722Z,11.80
2023-06-23T04:37:04.300Z,13.13
2023-06-23T04:40:15.377Z,11.30
2023-06-23T04:43:32.486Z,11.32
2023-06-23T04:46:39.880Z,11.85
2023-06-23T04:49:45.291Z,12.05
2023-06-23T04:52:53.340Z,11.85
2023-06-23T04:56:01.501Z,11.18
2023-06-23T04:59:08.085Z,12.60
2023-06-23T05:02:13.117Z,12.70
2023-06-23T05:05:22.788Z,12.60
2023-06-23T05:08:27.733Z,13.00
2023-06-23T05:11:32.310Z,12.27
2023-06-23T05:14:35.399Z,12.77
2023-06-23T05:17:40.059Z,12.48
2023-06-23T05:20:44.368Z,12.65
2023-06-23T05:23:53.552Z,12.00
2023-06-23T05:26:57.167Z,12.90
2023-06-23T05:30:02.162Z,13.38
2023-06-23T05:33:08.667Z,12.63
2023-06-23T05:36:13.440Z,11.32
2023-06-23T05:39:18.544Z,12.98
2023-06-23T05:42:21.058Z,13.40
2023-06-23T05:45:23.347Z,13.13
2023-06-23T05:48:43.634Z,12.05
2023-06-23T05:51:53.131Z,13.07
2023-06-23T05:54:56.080Z,12.18
2023-06-23T05:58:03.800Z,11.88
2023-06-23T06:01:13.687Z,11.63
2023-06-23T06:04:18.358Z,11.63
2023-06-23T06:07:21.355Z,13.18
2023-06-23T06:10:24.596Z,13.00
2023-06-23T06:13:28.670Z,12.75
2023-06-23T06:16:32.767Z,12.52
2023-06-23T06:19:38.069Z,12.98
2023-06-23T06:22:42.928Z,13.55
2023-06-23T06:25:47.342Z,12.80
2023-06-23T06:28:55.036Z,12.45
2023-06-23T06:31:59.323Z,15.35
2023-06-23T06:35:06.730Z,13.65
2023-06-23T06:38:11.434Z,13.52
2023-06-23T06:41:15.593Z,13.70
2023-06-23T06:44:18.213Z,13.50
2023-06-23T06:47:22.050Z,13.82
2023-06-23T06:50:25.396Z,13.60
2023-06-23T06:53:28.973Z,13.62
2023-06-23T06:56:31.581Z,13.00
2023-06-23T06:59:34.131Z,13.40
2023-06-23T07:02:38.393Z,14.98
2023-06-23T07:05:41.077Z,13.93
2023-06-23T07:08:44.046Z,15.05
2023-06-23T07:11:50.375Z,15.85
2023-06-23T07:14:52.867Z,13.93
2023-06-23T07:17:55.296Z,14.50
2023-06-23T07:20:59.804Z,14.55
2023-06-23T07:24:02.294Z,14.82
2023-06-23T07:27:05.658Z,15.48
2023-06-23T07:30:08.808Z,15.15
2023-06-23T07:33:11.130Z,15.90
2023-06-23T07:36:13.574Z,15.25
2023-06-23T07:39:15.725Z,14.98
2023-06-23T07:42:18.288Z,14.75
2023-06-23T07:45:20.450Z,15.18
2023-06-23T07:48:22.907Z,15.48
2023-06-23T07:51:25.089Z,15.57
2023-06-23T07:54:29.249Z,15.40
2023-06-23T07:57:31.425Z,16.10
2023-06-23T08:00:33.992Z,15.77
2023-06-23T08:03:37.166Z,16.20
2023-06-23T08:06:39.439Z,15.50
2023-06-23T08:09:41.946Z,17.05
2023-06-23T08:12:44.080Z,16.15
2023-06-23T08:15:48.171Z,17.23
2023-06-23T08:18:50.295Z,16.10
2023-06-23T08:21:53.718Z,17.95
2023-06-23T08:24:55.860Z,16.20
2023-06-23T08:27:58.471Z,17.77
2023-06-23T08:31:01.681Z,16.30
2023-06-23T08:34:04.243Z,15.55
2023-06-23T08:37:06.582Z,16.55
2023-06-23T08:40:09.921Z,17.02
2023-06-23T08:43:12.438Z,16.92
2023-06-23T08:46:16.257Z,17.23
2023-06-23T08:49:22.816Z,16.27
2023-06-23T08:52:26.143Z,16.50
2023-06-23T08:55:28.738Z,16.80
2023-06-23T08:58:31.833Z,16.80
2023-06-23T09:01:35.090Z,16.83
2023-06-23T09:04:37.819Z,16.83
2023-06-23T09:07:40.481Z,16.48
2023-06-23T09:10:43.368Z,16.30
2023-06-23T09:13:46.531Z,16.70
2023-06-23T09:16:49.803Z,16.80
2023-06-23T09:19:53.295Z,17.23
2023-06-23T09:22:56.299Z,17.60
2023-06-23T09:26:00.045Z,17.58
2023-06-23T09:29:22.882Z,17.83
2023-06-23T09:32:31.391Z,17.48
2023-06-23T09:35:34.183Z,17.77
2023-06-23T09:38:37.898Z,18.62
2023-06-23T09:41:51.791Z,18.02
2023-06-23T09:44:54.974Z,17.85
2023-06-23T09:47:57.414Z,18.95
2023-06-23T09:51:04.248Z,17.30
2023-06-23T09:54:06.766Z,17.37
2023-06-23T09:57:19.440Z,17.83
2023-06-23T10:00:31.166Z,17.62
2023-06-23T10:03:48.328Z,17.92
2023-06-23T10:06:50.852Z,16.55
2023-06-23T10:10:04.723Z,15.88
2023-06-23T10:13:15.098Z,15.50
2023-06-23T10:16:17.723Z,16.42
2023-06-23T10:19:20.108Z,16.87
2023-06-23T10:22:23.559Z,17.67
2023-06-23T10:25:28.062Z,17.05
2023-06-23T10:28:31.869Z,17.33
2023-06-23T10:31:36.906Z,17.42
2023-06-23T10:34:43.371Z,16.42
2023-06-23T10:37:49.366Z,16.92
2023-06-23T10:40:52.526Z,17.00
2023-06-23T10:43:57.862Z,18.48
2023-06-23T10:47:00.537Z,18.15
2023-06-23T10:50:03.396Z,17.90
2023-06-23T10:53:15.690Z,18.50
2023-06-23T10:56:37.938Z,18.52
2023-06-23T10:59:45.070Z,18.55
2023-06-23T11:02:54.453Z,19.00
2023-06-23T11:05:58.614Z,17.85
2023-06-23T11:09:02.312Z,18.85
2023-06-23T11:12:40.048Z,18.30
2023-06-23T11:15:51.728Z,18.37
2023-06-23T11:18:58.407Z,18.87
2023-06-23T11:22:10.400Z,18.55
2023-06-23T11:25:24.111Z,19.58
2023-06-23T11:28:36.587Z,18.48
2023-06-23T11:32:13.348Z,18.45
2023-06-23T11:35:15.855Z,18.87
2023-06-23T11:38:20.193Z,18.73
2023-06-23T11:41:27.866Z,17.83
2023-06-23T11:44:30.359Z,18.05
2023-06-23T11:47:34.488Z,17.35
2023-06-23T11:50:37.409Z,16.85
2023-06-23T11:53:43.085Z,16.37
2023-06-23T11:56:46.164Z,17.17
2023-06-23T11:59:49.678Z,16.65
2023-06-23T12:02:53.191Z,15.20
2023-06-23T12:05:56.305Z,15.55
2023-06-23T12:08:58.701Z,17.05
2023-06-23T12:12:01.637Z,14.40
2023-06-23T12:15:04.480Z,15.38
2023-06-23T12:18:08.299Z,14.80
2023-06-23T12:21:10.554Z,14.90
2023-06-23T12:24:13.084Z,14.23
2023-06-23T12:27:15.639Z,15.30
2023-06-23T12:30:19.587Z,14.63
2023-06-23T12:33:30.519Z,14.63
2023-06-23T12:36:33.000Z,14.40
2023-06-23T12:39:35.206Z,14.60
2023-06-23T12:42:38.091Z,14.98
2023-06-23T12:45:40.566Z,15.43
2023-06-23T12:48:43.934Z,15.27
2023-06-23T12:51:47.166Z,15.55
2023-06-23T12:54:52.312Z,15.73
2023-06-23T12:57:54.841Z,16.17
2023-06-23T13:00:57.303Z,15.85
2023-06-23T13:03:59.622Z,15.70
2023-06-23T13:07:02.436Z,14.93
2023-06-23T13:10:06.960Z,16.33
2023-06-23T13:13:14.266Z,15.43
2023-06-23T13:16:18.519Z,15.18
2023-06-23T13:19:21.038Z,16.55
2023-06-23T13:22:23.263Z,14.98
2023-06-23T13:25:26.175Z,14.73
2023-06-23T13:28:28.327Z,14.60
2023-06-23T13:31:30.881Z,16.50
2023-06-23T13:34:33.828Z,15.15
2023-06-23T13:37:38.415Z,15.20
2023-06-23T13:40:40.587Z,16.12
2023-06-23T13:43:42.981Z,15.48
2023-06-23T13:46:45.150Z,15.63
2023-06-23T13:49:47.689Z,15.02
2023-06-23T13:52:49.851Z,15.05
2023-06-23T13:55:52.358Z,15.27
2023-06-23T13:58:54.477Z,13.00
2023-06-23T14:01:56.941Z,13.35
2023-06-23T14:04:59.592Z,13.30
2023-06-23T14:08:01.920Z,12.35
2023-06-23T14:11:04.364Z,11.77
2023-06-23T14:14:06.652Z,10.48
2023-06-23T14:17:09.112Z,10.30
2023-06-23T14:20:14.357Z,9.32
2023-06-23T14:23:16.815Z,9.07
2023-06-23T14:26:18.972Z,9.07
2023-06-23T14:29:21.411Z,9.25
2023-06-23T14:32:23.972Z,8.85
2023-06-23T14:35:26.420Z,9.40
2023-06-23T14:38:28.926Z,8.70
